HKG weather

CLOSED Hong Kong International Airport Kai Tak
Hong Kong, Hong Kong

Public forecast

Using degrees Celsius for public forecast. Weather courtesy of forecast.io.

Closest aviation weather report (METAR) to Hong Kong International Airport Kai Tak

Closest report is Hong Kong International Airport, 15.7 nm (29.1 km) W. Retrieved 2020/01/29 02:30 UTC (0 seconds ago):

VHHH 290230Z 02008KT 340V040 CAVOK 12/00 Q1023 NOSIG

Closest aviation forecast (TAF) to Hong Kong International Airport Kai Tak

Closest forecast is Hong Kong International Airport, 15.7 nm (29.1 km) W. Retrieved 2020-01-29 00:21 UTC (2 hours ago):

TAF VHHH 282300Z 2900/3006 03010KT 9999 FEW040 TX17/2906Z TX18/3006Z TN11/2923Z TEMPO 2904/2910 33010KT TEMPO 3004/3006 33010KT